Time;durP1;ratioP1;P1;durP2;ratioP2;P2;SDS_P1;SDS_P2;PMS_P1;PMS_P2;Temp;Humidity;BMP_temperature;BMP_pressure;BME280_temperature;BME280_humidity;BME280_pressure;Samples;Min_cycle;Max_cycle;Signal;HPM_P1;HPM_P2
2022/07/08 00:02:04;;;;;;;4.60;2.70;;;18.30;99.90;;;;;;5024658;28;20421;-71
2022/07/08 00:04:29;;;;;;;4.60;2.20;;;18.30;99.90;;;;;;5005703;28;21464;-71
2022/07/08 00:06:55;;;;;;;4.83;2.00;;;18.30;99.90;;;;;;5005306;28;20184;-70
2022/07/08 00:09:21;;;;;;;6.93;2.13;;;18.30;99.90;;;;;;5004851;28;20536;-70
2022/07/08 00:11:47;;;;;;;5.53;2.50;;;18.40;99.90;;;;;;5004860;28;20225;-70
2022/07/08 00:14:13;;;;;;;3.20;2.10;;;18.30;99.90;;;;;;4987275;28;20793;-69
2022/07/08 00:16:40;;;;;;;6.03;2.40;;;18.20;99.90;;;;;;5004734;28;20180;-71
2022/07/08 00:19:16;;;;;;;5.80;3.00;;;18.20;99.90;;;;;;5005268;28;20254;-72
2022/07/08 00:21:44;;;;;;;3.97;1.90;;;18.00;99.90;;;;;;5001649;28;20423;-71
2022/07/08 00:24:12;;;;;;;4.77;2.20;;;18.00;99.90;;;;;;5004468;28;20493;-71
2022/07/08 00:26:40;;;;;;;4.90;2.80;;;17.90;99.90;;;;;;5004636;28;20491;-70
2022/07/08 00:29:06;;;;;;;4.70;2.47;;;17.70;99.90;;;;;;5004317;28;20415;-70
2022/07/08 00:31:32;;;;;;;4.00;2.63;;;17.70;99.90;;;;;;5004098;28;20458;-72
2022/07/08 00:33:58;;;;;;;6.73;2.37;;;17.60;99.90;;;;;;5004439;28;20450;-70
2022/07/08 00:36:24;;;;;;;5.63;2.67;;;17.60;99.90;;;;;;5004459;28;20470;-71
2022/07/08 00:38:51;;;;;;;5.27;2.73;;;17.60;99.90;;;;;;5004251;28;20450;-71
2022/07/08 00:41:16;;;;;;;7.37;3.03;;;17.70;99.90;;;;;;5004202;28;20411;-71
2022/07/08 00:43:44;;;;;;;5.60;2.70;;;17.60;99.90;;;;;;5004376;28;20459;-70
2022/07/08 00:46:11;;;;;;;5.20;2.90;;;17.60;99.90;;;;;;5004310;28;20207;-70
2022/07/08 00:48:37;;;;;;;6.00;3.63;;;17.60;99.90;;;;;;5003927;28;20422;-69
2022/07/08 00:51:06;;;;;;;4.10;3.30;;;17.60;99.90;;;;;;5004209;28;20454;-69
2022/07/08 00:53:33;;;;;;;6.43;2.73;;;17.40;99.90;;;;;;5003927;28;20542;-69
2022/07/08 00:56:00;;;;;;;5.80;3.30;;;17.40;99.90;;;;;;5004117;28;20410;-71
2022/07/08 00:58:26;;;;;;;6.60;3.40;;;17.40;99.90;;;;;;5004175;28;20822;-71
2022/07/08 01:00:55;;;;;;;4.57;3.37;;;17.30;99.90;;;;;;5004205;28;20916;-69
2022/07/08 01:03:21;;;;;;;5.70;3.40;;;17.30;99.90;;;;;;5003878;28;20481;-71
2022/07/08 01:05:46;;;;;;;6.27;3.30;;;17.40;99.90;;;;;;5003941;28;20418;-70
2022/07/08 01:08:12;;;;;;;5.40;2.87;;;17.40;99.90;;;;;;5003784;28;20464;-71
2022/07/08 01:10:39;;;;;;;5.73;3.60;;;17.40;99.90;;;;;;5003873;28;20200;-71
2022/07/08 01:13:05;;;;;;;5.67;3.50;;;17.30;99.90;;;;;;5004007;28;20434;-71
2022/07/08 01:15:32;;;;;;;5.23;4.13;;;17.30;99.90;;;;;;5004037;28;20815;-70
2022/07/08 01:17:57;;;;;;;6.40;3.77;;;17.30;99.90;;;;;;5003848;28;20517;-73
2022/07/08 01:20:23;;;;;;;6.07;3.83;;;17.40;99.90;;;;;;5004071;28;20865;-71
2022/07/08 01:22:49;;;;;;;5.00;3.67;;;17.30;99.90;;;;;;4990840;28;20273;-71
2022/07/08 01:25:14;;;;;;;4.73;3.07;;;17.20;99.90;;;;;;5004084;28;20182;-71
2022/07/08 01:27:40;;;;;;;5.20;4.10;;;17.10;99.90;;;;;;5003884;28;20187;-73
2022/07/08 01:30:07;;;;;;;3.70;3.40;;;17.00;99.90;;;;;;5004028;28;20196;-70
2022/07/08 01:32:35;;;;;;;4.67;3.40;;;16.90;99.90;;;;;;5003698;28;20290;-71
2022/07/08 01:35:01;;;;;;;4.50;3.83;;;17.00;99.90;;;;;;5003852;28;20417;-71
2022/07/08 01:37:26;;;;;;;7.33;3.63;;;17.00;99.90;;;;;;5004160;28;20418;-68
2022/07/08 01:39:52;;;;;;;5.73;3.47;;;17.00;99.90;;;;;;5004020;28;20424;-69
2022/07/08 01:42:18;;;;;;;6.50;3.50;;;16.90;99.90;;;;;;5003730;28;20171;-70
2022/07/08 01:44:43;;;;;;;4.97;3.10;;;16.90;99.90;;;;;;4997452;28;20194;-70
2022/07/08 01:47:09;;;;;;;6.70;3.83;;;16.90;99.90;;;;;;5003199;28;20168;-70
2022/07/08 01:49:34;;;;;;;4.73;3.20;;;16.80;99.90;;;;;;5007459;28;20228;-70
2022/07/08 01:52:01;;;;;;;7.77;3.20;;;16.90;99.90;;;;;;5007599;28;20271;-71
2022/07/08 01:54:26;;;;;;;8.47;3.10;;;16.70;99.90;;;;;;5007198;28;20213;-71
2022/07/08 01:57:13;;;;;;;6.30;2.70;;;16.50;99.90;;;;;;5006774;28;20484;-72
2022/07/08 01:59:37;;;;;;;10.43;3.67;;;16.40;99.90;;;;;;5007903;28;20235;-71
2022/07/08 02:02:03;;;;;;;8.03;4.10;;;16.30;99.90;;;;;;5007021;28;20407;-71
2022/07/08 02:04:29;;;;;;;7.03;3.27;;;16.40;99.90;;;;;;5007948;28;20181;-71
2022/07/08 02:06:55;;;;;;;6.17;3.30;;;16.40;99.90;;;;;;5007297;28;20419;-73
2022/07/08 02:09:21;;;;;;;8.63;3.47;;;16.50;99.90;;;;;;5007308;28;20226;-71
2022/07/08 02:14:32;;;;;;;3.50;2.70;;;16.30;99.90;;;;;;5008028;28;20219;-70
2022/07/08 02:16:58;;;;;;;6.73;3.07;;;16.40;99.90;;;;;;5007074;28;20421;-70
2022/07/08 02:19:24;;;;;;;7.00;3.40;;;16.50;99.90;;;;;;5007265;28;20418;-71
2022/07/08 02:21:50;;;;;;;5.67;3.30;;;16.50;99.90;;;;;;5007473;28;20987;-69
2022/07/08 02:24:15;;;;;;;6.47;4.07;;;16.40;99.90;;;;;;5006538;28;20446;-69
2022/07/08 02:26:41;;;;;;;6.63;3.80;;;16.20;99.90;;;;;;5007129;28;20592;-73
2022/07/08 02:29:06;;;;;;;5.27;2.97;;;16.00;99.90;;;;;;5006645;28;20206;-70
2022/07/08 02:31:32;;;;;;;5.60;3.57;;;15.90;99.90;;;;;;5006876;28;20193;-71
2022/07/08 02:33:58;;;;;;;7.37;3.37;;;15.80;99.90;;;;;;5006420;28;20621;-70
2022/07/08 02:36:23;;;;;;;6.23;3.60;;;15.80;99.90;;;;;;5006850;28;20505;-70
2022/07/08 02:38:49;;;;;;;9.67;3.63;;;15.90;99.90;;;;;;5006566;28;20208;-71
2022/07/08 02:41:14;;;;;;;8.27;3.77;;;15.80;99.90;;;;;;4998466;28;20206;-70
2022/07/08 02:43:40;;;;;;;11.13;3.67;;;15.80;99.90;;;;;;5006868;28;20209;-70
2022/07/08 02:46:05;;;;;;;5.87;3.00;;;15.80;99.90;;;;;;5006548;28;20658;-70
2022/07/08 02:48:31;;;;;;;6.43;3.20;;;15.80;99.90;;;;;;5006361;28;20249;-71
2022/07/08 02:50:57;;;;;;;4.53;3.37;;;15.90;99.90;;;;;;5006584;28;20183;-69
2022/07/08 02:53:23;;;;;;;8.90;3.50;;;16.00;99.90;;;;;;5006217;28;20217;-70
2022/07/08 02:55:49;;;;;;;4.40;3.03;;;15.80;99.90;;;;;;5006320;28;20423;-69
2022/07/08 02:58:14;;;;;;;7.67;3.70;;;15.80;99.90;;;;;;5006531;28;20185;-73
2022/07/08 03:00:40;;;;;;;6.43;3.63;;;15.70;99.90;;;;;;5006281;28;20290;-68
2022/07/08 03:03:05;;;;;;;8.33;4.60;;;15.70;99.90;;;;;;5006410;28;20210;-70
2022/07/08 03:05:31;;;;;;;4.37;2.93;;;15.70;99.90;;;;;;5006150;28;20664;-71
2022/07/08 03:07:57;;;;;;;10.40;3.30;;;15.50;99.90;;;;;;5006199;28;20249;-70
2022/07/08 03:10:22;;;;;;;5.17;2.73;;;15.50;99.90;;;;;;5006156;28;20183;-70
2022/07/08 03:12:48;;;;;;;10.93;3.60;;;15.50;99.90;;;;;;5006067;28;20202;-70
2022/07/08 03:15:14;;;;;;;4.13;3.00;;;15.60;99.90;;;;;;5006177;28;20630;-71
2022/07/08 03:17:39;;;;;;;9.27;3.40;;;15.60;99.90;;;;;;5005189;28;20682;-71
2022/07/08 03:20:05;;;;;;;8.20;3.17;;;15.60;99.90;;;;;;5006194;28;20553;-70
2022/07/08 03:22:32;;;;;;;7.20;2.60;;;15.60;99.90;;;;;;5005533;28;20584;-73
2022/07/08 03:24:58;;;;;;;7.87;3.00;;;15.80;99.90;;;;;;5005814;28;20414;-69
2022/07/08 03:27:23;;;;;;;4.70;2.93;;;15.70;99.90;;;;;;5005778;28;20434;-70
2022/07/08 03:29:49;;;;;;;4.30;2.83;;;15.60;99.90;;;;;;5006101;28;20190;-70
2022/07/08 03:32:15;;;;;;;5.77;3.53;;;15.60;99.90;;;;;;5005505;28;20558;-70
2022/07/08 03:34:40;;;;;;;4.57;2.90;;;15.60;99.90;;;;;;5006197;28;20192;-69
2022/07/08 03:37:06;;;;;;;5.67;3.00;;;15.60;99.90;;;;;;5005643;28;20197;-72
2022/07/08 03:39:32;;;;;;;7.73;3.50;;;15.60;99.90;;;;;;5005600;28;20202;-73
2022/07/08 03:41:57;;;;;;;6.57;3.53;;;15.60;99.90;;;;;;5005782;28;20469;-71
2022/07/08 03:44:23;;;;;;;7.67;3.27;;;15.60;99.90;;;;;;5005856;28;20237;-71
2022/07/08 03:46:48;;;;;;;5.30;3.10;;;15.40;99.90;;;;;;5005603;28;20239;-70
2022/07/08 03:49:14;;;;;;;5.43;3.37;;;15.30;99.90;;;;;;5005272;28;20181;-70
2022/07/08 03:51:39;;;;;;;5.97;3.83;;;15.50;99.90;;;;;;5005760;28;20263;-71
2022/07/08 03:54:05;;;;;;;5.27;3.00;;;15.40;99.90;;;;;;5004793;28;20784;-72
2022/07/08 03:56:31;;;;;;;7.97;3.13;;;15.40;99.90;;;;;;5005395;28;20237;-72
2022/07/08 03:58:56;;;;;;;7.37;3.00;;;15.40;99.90;;;;;;5005338;28;20411;-71
2022/07/08 04:01:22;;;;;;;6.60;2.90;;;15.60;99.90;;;;;;5006051;28;20552;-72
2022/07/08 04:03:47;;;;;;;8.40;3.53;;;15.60;99.90;;;;;;5005759;28;20281;-70
2022/07/08 04:06:13;;;;;;;9.27;3.10;;;15.60;99.90;;;;;;5006649;28;20198;-72
2022/07/08 04:08:39;;;;;;;6.63;3.27;;;15.60;99.90;;;;;;5005695;28;20212;-71
2022/07/08 04:11:05;;;;;;;6.33;3.37;;;15.60;99.90;;;;;;5005258;28;20241;-69
2022/07/08 04:13:30;;;;;;;7.27;3.00;;;15.70;99.90;;;;;;5005605;28;20195;-72
2022/07/08 04:15:56;;;;;;;8.63;3.37;;;15.70;99.90;;;;;;4998419;28;20433;-70
2022/07/08 04:18:23;;;;;;;7.93;3.60;;;15.70;99.90;;;;;;5005697;28;20185;-70
2022/07/08 04:20:48;;;;;;;4.77;2.87;;;15.80;99.90;;;;;;5005136;28;20466;-74
2022/07/08 04:23:14;;;;;;;4.80;3.10;;;16.00;99.90;;;;;;5005335;28;20526;-71
2022/07/08 04:25:39;;;;;;;5.50;2.57;;;15.80;99.90;;;;;;5007300;28;21024;-70
2022/07/08 04:28:05;;;;;;;4.57;2.83;;;15.80;99.90;;;;;;5007639;28;20189;-72
2022/07/08 04:30:31;;;;;;;10.77;3.97;;;16.00;99.90;;;;;;5007127;28;20556;-72
2022/07/08 04:32:56;;;;;;;6.47;3.13;;;16.00;99.90;;;;;;5006982;28;20256;-72
2022/07/08 04:35:22;;;;;;;8.67;3.43;;;16.10;99.90;;;;;;5007898;28;20510;-71
2022/07/08 04:37:48;;;;;;;7.20;3.20;;;16.00;99.90;;;;;;5007400;28;20185;-72
2022/07/08 04:40:15;;;;;;;9.20;3.67;;;15.80;99.90;;;;;;5007968;28;20206;-72
2022/07/08 04:42:41;;;;;;;4.23;3.03;;;15.70;99.90;;;;;;5001849;28;20457;-71
2022/07/08 04:45:07;;;;;;;11.60;3.40;;;15.90;99.90;;;;;;5009351;28;20420;-72
2022/07/08 04:47:33;;;;;;;5.10;2.90;;;16.00;99.90;;;;;;5008912;28;20419;-71
2022/07/08 04:49:59;;;;;;;5.20;3.03;;;16.10;99.90;;;;;;5005868;28;20417;-72
2022/07/08 04:52:25;;;;;;;3.60;2.40;;;16.00;99.90;;;;;;5004137;28;20784;-69
2022/07/08 04:54:50;;;;;;;5.00;3.23;;;16.00;99.90;;;;;;5004357;28;20646;-70
2022/07/08 04:57:16;;;;;;;4.73;3.40;;;15.90;99.90;;;;;;5004370;28;20271;-70
2022/07/08 04:59:42;;;;;;;6.73;2.90;;;15.90;99.90;;;;;;5002853;28;20183;-71
2022/07/08 05:02:08;;;;;;;7.13;3.13;;;15.90;99.90;;;;;;5004267;28;20239;-72
2022/07/08 05:04:33;;;;;;;4.30;2.90;;;16.00;99.90;;;;;;5004225;28;20266;-70
2022/07/08 05:06:59;;;;;;;8.23;3.60;;;16.20;99.90;;;;;;4994648;28;20428;-70
2022/07/08 05:09:24;;;;;;;9.50;3.13;;;16.10;99.90;;;;;;5004348;28;20198;-70
2022/07/08 05:11:50;;;;;;;6.60;3.37;;;16.00;99.90;;;;;;5004628;28;20324;-72
2022/07/08 05:14:16;;;;;;;7.33;2.90;;;16.10;99.90;;;;;;5004368;28;20303;-71
2022/07/08 05:16:42;;;;;;;5.97;3.03;;;16.10;99.90;;;;;;5004829;28;20410;-71
2022/07/08 05:19:09;;;;;;;5.90;3.10;;;16.20;99.90;;;;;;5005729;28;20200;-71
2022/07/08 05:21:36;;;;;;;9.50;2.93;;;16.20;99.90;;;;;;5008449;28;20477;-72
2022/07/08 05:24:05;;;;;;;12.50;3.87;;;16.20;99.90;;;;;;5011975;28;20443;-72
2022/07/08 05:26:31;;;;;;;7.33;3.00;;;16.30;99.90;;;;;;5012873;28;20417;-70
2022/07/08 05:28:57;;;;;;;5.90;3.10;;;16.20;99.90;;;;;;5007026;28;20408;-72
2022/07/08 05:31:22;;;;;;;10.50;3.20;;;16.30;99.90;;;;;;5005413;28;20602;-72
2022/07/08 05:33:48;;;;;;;4.50;2.73;;;16.50;99.90;;;;;;4999984;28;20211;-71
2022/07/08 05:36:14;;;;;;;5.80;2.90;;;16.30;99.90;;;;;;5005456;28;20279;-71
2022/07/08 05:38:39;;;;;;;6.20;3.07;;;16.00;99.90;;;;;;5005323;28;20212;-72
2022/07/08 05:41:05;;;;;;;7.80;3.07;;;16.00;99.90;;;;;;5005234;28;20702;-71
2022/07/08 05:43:30;;;;;;;3.07;2.10;;;15.90;99.90;;;;;;5004286;28;20242;-71
2022/07/08 05:45:56;;;;;;;5.73;2.63;;;16.00;99.90;;;;;;5005759;28;20183;-71
2022/07/08 05:48:22;;;;;;;6.07;2.67;;;16.10;99.90;;;;;;5004520;28;20181;-71
2022/07/08 05:50:48;;;;;;;10.10;3.17;;;16.20;99.90;;;;;;5004944;28;20332;-72
2022/07/08 05:53:17;;;;;;;7.23;2.90;;;16.10;99.90;;;;;;5004227;28;20289;-70
2022/07/08 05:55:45;;;;;;;6.33;2.77;;;16.30;99.90;;;;;;5004599;28;20418;-71
2022/07/08 05:58:11;;;;;;;7.00;2.83;;;16.40;99.90;;;;;;5004728;28;20418;-70
2022/07/08 06:00:37;;;;;;;8.10;2.37;;;16.50;99.90;;;;;;5004215;28;20469;-72
2022/07/08 06:03:05;;;;;;;5.80;2.70;;;16.50;99.90;;;;;;5004482;28;20199;-71
2022/07/08 06:05:34;;;;;;;7.67;3.03;;;16.60;99.90;;;;;;5004716;28;20420;-70
2022/07/08 06:07:59;;;;;;;7.63;2.70;;;16.50;99.90;;;;;;5003806;28;20406;-72
2022/07/08 06:10:28;;;;;;;8.13;2.67;;;16.80;99.90;;;;;;5003911;28;20424;-71
2022/07/08 06:12:54;;;;;;;6.57;3.07;;;17.00;99.90;;;;;;5003292;28;20560;-72
2022/07/08 06:15:20;;;;;;;9.80;2.93;;;17.10;99.90;;;;;;5003419;28;20437;-69
2022/07/08 06:17:46;;;;;;;6.00;2.83;;;16.90;99.90;;;;;;5003661;28;20453;-71
2022/07/08 06:20:14;;;;;;;6.60;2.93;;;16.80;99.90;;;;;;5004125;28;20520;-70
2022/07/08 06:22:40;;;;;;;6.27;2.87;;;16.80;99.90;;;;;;5003895;28;20188;-70
2022/07/08 06:25:06;;;;;;;5.13;2.33;;;16.80;99.90;;;;;;5004349;28;20768;-71
2022/07/08 06:27:32;;;;;;;3.93;1.90;;;17.00;99.90;;;;;;5007702;28;20189;-70
2022/07/08 06:29:57;;;;;;;5.97;2.40;;;16.70;99.90;;;;;;5003977;28;20424;-73
2022/07/08 06:32:23;;;;;;;5.60;2.77;;;16.70;99.90;;;;;;4997342;28;20206;-71
2022/07/08 06:34:49;;;;;;;8.27;2.50;;;16.90;99.90;;;;;;5006259;28;20189;-71
2022/07/08 06:37:15;;;;;;;4.90;2.30;;;17.00;99.90;;;;;;5007006;28;20183;-71
2022/07/08 06:39:41;;;;;;;3.30;1.70;;;17.10;99.90;;;;;;4994522;28;20278;-72
2022/07/08 06:42:06;;;;;;;6.80;2.50;;;16.90;99.90;;;;;;5007238;28;20547;-72
2022/07/08 06:44:32;;;;;;;5.87;2.73;;;17.10;99.90;;;;;;5006401;28;20257;-71
2022/07/08 06:46:57;;;;;;;2.80;1.83;;;17.30;99.90;;;;;;5006635;28;20172;-70
2022/07/08 06:49:23;;;;;;;5.00;2.37;;;17.10;99.90;;;;;;5007291;28;20187;-71
2022/07/08 06:51:49;;;;;;;3.33;1.50;;;17.30;99.90;;;;;;5007377;28;20188;-70
2022/07/08 06:56:59;;;;;;;4.63;2.03;;;17.40;99.90;;;;;;5008900;28;20183;-72
2022/07/08 06:59:25;;;;;;;6.63;2.60;;;17.60;99.90;;;;;;4999031;28;20419;-71
2022/07/08 07:01:52;;;;;;;6.70;2.03;;;17.70;99.90;;;;;;5007315;28;21006;-71
2022/07/08 07:04:17;;;;;;;5.37;1.90;;;17.70;99.90;;;;;;5006670;28;20614;-71
2022/07/08 07:06:43;;;;;;;3.43;1.90;;;17.70;99.90;;;;;;5006044;28;20514;-71
2022/07/08 07:09:09;;;;;;;5.40;2.20;;;17.80;99.90;;;;;;5006730;28;20623;-72
2022/07/08 07:11:35;;;;;;;4.27;2.00;;;17.80;99.90;;;;;;5007144;28;20253;-72
2022/07/08 07:14:01;;;;;;;6.00;1.97;;;17.80;99.90;;;;;;5006257;28;20434;-72
2022/07/08 07:16:27;;;;;;;5.77;2.37;;;17.60;99.90;;;;;;5007053;28;20191;-70
2022/07/08 07:18:53;;;;;;;2.50;1.50;;;17.50;99.90;;;;;;5007038;28;20414;-71
2022/07/08 07:21:18;;;;;;;7.00;2.80;;;17.50;99.90;;;;;;5006313;28;20206;-71
2022/07/08 07:23:44;;;;;;;4.27;2.23;;;17.40;99.90;;;;;;5006358;28;20200;-70
2022/07/08 07:26:09;;;;;;;3.30;2.10;;;17.20;99.80;;;;;;5006295;28;21036;-71
2022/07/08 07:28:35;;;;;;;4.50;1.97;;;17.40;99.50;;;;;;5006438;28;20525;-73
2022/07/08 07:31:01;;;;;;;4.40;2.23;;;17.70;99.40;;;;;;5005622;28;20190;-71
2022/07/08 07:33:27;;;;;;;6.97;2.27;;;18.00;98.80;;;;;;5006543;28;21426;-71
2022/07/08 07:35:52;;;;;;;3.70;1.93;;;18.30;98.60;;;;;;5006554;28;20278;-71
2022/07/08 07:38:18;;;;;;;5.70;1.93;;;18.40;97.90;;;;;;5006719;28;20507;-70
2022/07/08 07:40:43;;;;;;;3.70;1.80;;;18.10;98.30;;;;;;5006302;28;20293;-69
2022/07/08 07:43:09;;;;;;;5.30;2.03;;;18.40;98.90;;;;;;5006925;28;20200;-71
2022/07/08 07:45:34;;;;;;;7.20;2.60;;;18.40;98.20;;;;;;5005424;28;20184;-72
2022/07/08 07:48:00;;;;;;;4.87;2.33;;;18.30;98.10;;;;;;5006094;28;20203;-72
2022/07/08 07:50:26;;;;;;;4.30;1.87;;;18.40;98.30;;;;;;5006132;28;20271;-71
2022/07/08 07:52:53;;;;;;;3.73;1.77;;;18.50;99.00;;;;;;5005709;28;20219;-71
2022/07/08 07:55:18;;;;;;;6.07;2.20;;;18.60;98.10;;;;;;5005974;28;20434;-71
2022/07/08 07:57:46;;;;;;;7.77;2.10;;;18.10;98.40;;;;;;5005333;28;20421;-71
2022/07/08 08:00:12;;;;;;;4.10;1.60;;;18.10;98.20;;;;;;5005118;28;20202;-70
2022/07/08 08:02:39;;;;;;;2.70;2.07;;;17.90;98.70;;;;;;5005589;28;20566;-71
2022/07/08 08:05:05;;;;;;;6.10;2.00;;;18.00;98.40;;;;;;5005432;28;20419;-70
2022/07/08 08:07:31;;;;;;;5.90;2.43;;;17.90;98.40;;;;;;5005539;28;20414;-70
2022/07/08 08:09:56;;;;;;;8.07;1.97;;;17.90;98.70;;;;;;5005290;28;20410;-72
2022/07/08 08:12:22;;;;;;;2.73;1.60;;;18.10;98.10;;;;;;5005795;28;20263;-72
2022/07/08 08:14:47;;;;;;;5.00;1.90;;;18.50;98.30;;;;;;5005195;28;20680;-72
2022/07/08 08:17:13;;;;;;;3.40;1.87;;;18.80;97.30;;;;;;5005531;28;20241;-73
2022/07/08 08:19:39;;;;;;;4.43;1.93;;;18.90;97.00;;;;;;5006176;28;20195;-72
2022/07/08 08:22:04;;;;;;;5.10;2.23;;;19.00;97.10;;;;;;5005462;28;20262;-71
2022/07/08 08:24:30;;;;;;;7.53;2.10;;;19.00;96.60;;;;;;5006042;28;20211;-71
2022/07/08 08:26:56;;;;;;;3.87;1.83;;;18.80;97.80;;;;;;5004823;28;20176;-74
2022/07/08 08:29:21;;;;;;;4.80;2.20;;;18.80;96.50;;;;;;5004739;28;20191;-72
2022/07/08 08:31:47;;;;;;;8.93;2.20;;;18.50;96.90;;;;;;4993710;28;20180;-72
2022/07/08 08:34:13;;;;;;;3.67;1.60;;;18.40;97.00;;;;;;5004794;28;20288;-70
2022/07/08 08:36:38;;;;;;;3.80;1.53;;;18.30;97.10;;;;;;5004640;28;20274;-70
2022/07/08 08:39:04;;;;;;;3.40;1.63;;;18.50;96.50;;;;;;5004394;28;20187;-70
2022/07/08 08:41:30;;;;;;;4.37;2.10;;;18.60;96.30;;;;;;5002945;28;20237;-70
2022/07/08 08:43:55;;;;;;;5.03;1.70;;;18.60;96.10;;;;;;5003996;28;20215;-71
2022/07/08 08:46:24;;;;;;;5.57;1.90;;;18.40;96.00;;;;;;5003359;28;20179;-71
2022/07/08 08:48:55;;;;;;;6.37;1.83;;;18.50;96.30;;;;;;5004530;28;20203;-71
2022/07/08 08:51:22;;;;;;;5.30;2.17;;;18.80;96.40;;;;;;5004115;28;20916;-72
2022/07/08 08:53:52;;;;;;;4.67;1.93;;;19.20;96.10;;;;;;5003855;28;20473;-71
2022/07/08 08:56:18;;;;;;;4.57;1.87;;;19.40;95.30;;;;;;5004380;28;20778;-71
2022/07/08 08:58:46;;;;;;;4.10;1.80;;;19.30;95.20;;;;;;5004791;28;20567;-71
2022/07/08 09:01:13;;;;;;;5.30;1.97;;;19.10;95.30;;;;;;5003919;28;20462;-70
2022/07/08 09:03:39;;;;;;;7.03;2.43;;;18.90;95.80;;;;;;5003778;28;20434;-72
2022/07/08 09:06:05;;;;;;;2.80;1.63;;;18.90;95.50;;;;;;5023284;22;20516;-72
2022/07/08 09:08:32;;;;;;;6.73;2.40;;;19.20;96.30;;;;;;5024469;28;20650;-73
2022/07/08 09:10:58;;;;;;;3.27;1.50;;;19.30;95.20;;;;;;5029154;28;20896;-72
2022/07/08 09:13:25;;;;;;;4.60;1.90;;;19.30;94.90;;;;;;5043728;28;20408;-70
2022/07/08 09:15:54;;;;;;;7.20;1.83;;;19.20;94.60;;;;;;5043482;28;20417;-72
2022/07/08 09:18:22;;;;;;;3.83;1.80;;;19.00;95.10;;;;;;5025696;28;20911;-71
2022/07/08 09:20:53;;;;;;;4.47;1.90;;;19.10;94.70;;;;;;5010750;28;20977;-73
2022/07/08 09:23:21;;;;;;;4.83;1.97;;;19.20;95.80;;;;;;5043335;28;20425;-72
2022/07/08 09:25:55;;;;;;;4.70;1.80;;;19.30;95.00;;;;;;5043259;28;20898;-71
2022/07/08 09:28:41;;;;;;;4.43;1.90;;;19.10;94.90;;;;;;5043231;28;20409;-71
2022/07/08 09:31:10;;;;;;;4.57;2.00;;;19.00;95.20;;;;;;5043204;28;20420;-72
2022/07/08 09:33:37;;;;;;;5.37;2.30;;;19.30;95.10;;;;;;5043365;28;20913;-72
2022/07/08 09:36:04;;;;;;;3.50;2.40;;;19.20;95.60;;;;;;5036495;28;20442;-72
2022/07/08 09:38:35;;;;;;;3.77;1.83;;;19.20;95.40;;;;;;5028420;28;20421;-70
2022/07/08 09:41:05;;;;;;;3.33;2.13;;;19.30;95.30;;;;;;5023399;28;21043;-71
2022/07/08 09:43:33;;;;;;;3.00;1.63;;;19.20;94.70;;;;;;5006457;28;20453;-71
2022/07/08 09:46:04;;;;;;;6.43;2.33;;;19.10;95.20;;;;;;5005761;28;20529;-72
2022/07/08 09:48:29;;;;;;;3.97;1.80;;;19.20;95.30;;;;;;5023312;28;20442;-70
2022/07/08 09:50:55;;;;;;;4.50;1.90;;;19.40;94.40;;;;;;5023244;28;20454;-72
2022/07/08 09:53:42;;;;;;;4.00;1.47;;;19.50;94.00;;;;;;5042293;28;20182;-74
2022/07/08 09:56:08;;;;;;;1.50;1.40;;;19.60;94.00;;;;;;5025965;28;20228;-72
2022/07/08 09:58:35;;;;;;;6.57;2.10;;;19.40;93.80;;;;;;5043317;28;20417;-73
2022/07/08 10:01:02;;;;;;;5.80;1.80;;;19.40;93.70;;;;;;5027647;28;20207;-72
2022/07/08 10:03:28;;;;;;;3.43;1.60;;;19.40;93.60;;;;;;5023418;28;20485;-73
2022/07/08 10:05:54;;;;;;;2.83;1.53;;;19.60;93.60;;;;;;5023019;28;20406;-71
2022/07/08 10:08:20;;;;;;;2.37;1.70;;;19.70;93.30;;;;;;5023591;28;20425;-72
2022/07/08 10:10:48;;;;;;;2.57;1.90;;;19.80;93.40;;;;;;5027221;28;20422;-71
2022/07/08 10:13:15;;;;;;;4.67;2.20;;;19.60;93.80;;;;;;5030906;28;20213;-71
2022/07/08 10:15:43;;;;;;;4.10;1.67;;;19.80;94.30;;;;;;5046426;28;20441;-71
2022/07/08 10:18:23;;;;;;;2.80;1.63;;;20.20;93.30;;;;;;5046665;28;20416;-72
2022/07/08 10:20:57;;;;;;;3.10;2.00;;;20.10;92.80;;;;;;5046920;28;20519;-71
2022/07/08 10:23:27;;;;;;;6.53;1.77;;;20.10;93.40;;;;;;5046709;28;20397;-72
2022/07/08 10:25:57;;;;;;;5.10;1.70;;;20.10;92.80;;;;;;5046984;28;20427;-72
2022/07/08 10:28:37;;;;;;;3.07;1.80;;;20.00;92.80;;;;;;5046649;28;20417;-71
2022/07/08 10:31:17;;;;;;;5.00;1.90;;;20.00;92.70;;;;;;5046369;28;20405;-72
2022/07/08 10:33:46;;;;;;;3.20;1.97;;;20.20;92.80;;;;;;5046250;28;20405;-70
2022/07/08 10:36:12;;;;;;;5.87;2.40;;;20.40;92.30;;;;;;5042504;28;20895;-72
2022/07/08 10:38:43;;;;;;;7.13;2.43;;;20.70;93.80;;;;;;5032200;28;20445;-73
2022/07/08 10:41:11;;;;;;;3.93;1.90;;;20.70;93.20;;;;;;5039939;28;20451;-72
2022/07/08 10:43:38;;;;;;;5.40;2.10;;;20.70;93.10;;;;;;5028264;28;20421;-70
2022/07/08 10:46:17;;;;;;;3.70;1.60;;;20.80;93.50;;;;;;5035704;28;20517;-72
2022/07/08 10:48:54;;;;;;;4.07;2.33;;;21.10;92.80;;;;;;5026802;28;20394;-72
2022/07/08 10:51:20;;;;;;;3.20;1.90;;;21.10;92.60;;;;;;5026144;28;20402;-72
2022/07/08 10:53:57;;;;;;;3.17;1.57;;;21.20;92.00;;;;;;5033786;28;20421;-72
2022/07/08 10:56:54;;;;;;;3.60;1.70;;;21.30;91.50;;;;;;5046268;28;20194;-72
2022/07/08 10:59:25;;;;;;;5.80;1.63;;;21.20;91.50;;;;;;5040208;28;20410;-73
2022/07/08 11:02:04;;;;;;;3.43;1.93;;;20.90;91.60;;;;;;5041761;28;20456;-71
2022/07/08 11:04:33;;;;;;;7.27;5.43;;;20.80;91.80;;;;;;5046430;28;20408;-71
2022/07/08 11:07:26;;;;;;;12.67;8.40;;;21.10;91.80;;;;;;5039272;28;20822;-72
2022/07/08 11:10:07;;;;;;;5.57;1.83;;;20.80;91.30;;;;;;5038742;28;20454;-72
2022/07/08 11:12:36;;;;;;;3.17;1.50;;;20.80;91.40;;;;;;5032024;28;20433;-72
2022/07/08 11:15:11;;;;;;;2.60;2.00;;;20.90;90.90;;;;;;5039976;28;20749;-72
2022/07/08 11:17:39;;;;;;;4.30;1.83;;;20.90;91.00;;;;;;5045844;28;20427;-72
2022/07/08 11:20:13;;;;;;;4.50;2.07;;;20.80;91.40;;;;;;5036371;28;20450;-73
2022/07/08 11:22:41;;;;;;;4.27;1.90;;;20.90;91.00;;;;;;5032776;28;20442;-72
2022/07/08 11:25:09;;;;;;;3.63;1.90;;;21.10;91.10;;;;;;5030605;28;20418;-71
2022/07/08 11:27:35;;;;;;;5.60;1.77;;;21.10;90.20;;;;;;5012507;28;20863;-72
2022/07/08 11:30:04;;;;;;;4.93;1.53;;;21.20;90.50;;;;;;5025791;28;20410;-72
2022/07/08 11:32:30;;;;;;;3.30;1.50;;;21.50;90.20;;;;;;5025716;28;20432;-72
2022/07/08 11:34:56;;;;;;;2.60;1.30;;;21.70;89.40;;;;;;5029352;28;20414;-72
2022/07/08 11:37:23;;;;;;;3.03;1.37;;;22.00;87.20;;;;;;5025754;28;20440;-72
2022/07/08 11:39:49;;;;;;;2.30;1.17;;;22.80;85.60;;;;;;5031481;28;20425;-72
2022/07/08 11:42:15;;;;;;;7.03;1.47;;;23.90;82.50;;;;;;5030611;28;20406;-73
2022/07/08 11:44:42;;;;;;;3.40;1.50;;;25.50;76.90;;;;;;5025567;28;20420;-72
2022/07/08 11:47:10;;;;;;;1.70;1.33;;;25.00;77.40;;;;;;5007949;28;20437;-73
2022/07/08 11:49:41;;;;;;;3.20;1.40;;;24.30;78.90;;;;;;5025558;28;20417;-71
2022/07/08 11:52:07;;;;;;;4.90;2.17;;;25.50;77.90;;;;;;5025741;28;20421;-73
2022/07/08 11:54:33;;;;;;;1.87;1.00;;;26.00;73.70;;;;;;5033616;28;20413;-72
2022/07/08 11:57:00;;;;;;;2.90;1.10;;;27.20;70.50;;;;;;5035803;28;20226;-72
2022/07/08 11:59:28;;;;;;;5.47;1.83;;;26.60;68.60;;;;;;5041174;28;20190;-72
2022/07/08 12:01:55;;;;;;;5.13;1.67;;;25.00;72.60;;;;;;5041003;28;20552;-73
2022/07/08 12:04:21;;;;;;;2.20;1.17;;;25.60;73.10;;;;;;5039082;28;20419;-73
2022/07/08 12:06:49;;;;;;;2.97;1.37;;;27.50;68.60;;;;;;5029763;28;20805;-73
2022/07/08 12:09:16;;;;;;;2.20;1.20;;;27.90;64.40;;;;;;5010955;28;20912;-73
2022/07/08 12:11:46;;;;;;;4.30;1.60;;;28.00;63.40;;;;;;5038227;28;20409;-72
2022/07/08 12:14:13;;;;;;;1.70;1.10;;;27.70;62.00;;;;;;5030932;28;20783;-72
2022/07/08 12:16:46;;;;;;;2.80;1.17;;;27.00;64.20;;;;;;5027570;28;20430;-72
2022/07/08 12:19:36;;;;;;;3.33;1.27;;;28.60;60.60;;;;;;5040872;28;20500;-73
2022/07/08 12:22:06;;;;;;;4.80;1.53;;;28.70;60.60;;;;;;5029274;28;20524;-73
2022/07/08 12:24:37;;;;;;;3.07;1.47;;;28.30;59.60;;;;;;5024867;28;20456;-73
2022/07/08 12:27:15;;;;;;;3.90;1.87;;;28.70;61.70;;;;;;5007122;28;20529;-71
2022/07/08 12:29:41;;;;;;;3.43;1.87;;;28.60;59.50;;;;;;5025132;28;20842;-72
2022/07/08 12:32:08;;;;;;;2.73;1.50;;;29.90;58.20;;;;;;5038002;28;20483;-73
2022/07/08 12:34:34;;;;;;;6.23;3.03;;;31.00;54.90;;;;;;5038204;28;20187;-72
2022/07/08 12:37:19;;;;;;;5.07;1.90;;;31.30;55.20;;;;;;5043001;28;20960;-71
2022/07/08 12:39:46;;;;;;;3.43;1.57;;;29.70;56.00;;;;;;5042355;28;20507;-72
2022/07/08 12:42:11;;;;;;;3.33;1.97;;;29.80;57.20;;;;;;5041519;28;20427;-72
2022/07/08 12:44:48;;;;;;;3.37;1.60;;;28.90;56.70;;;;;;5044457;28;20901;-72
2022/07/08 12:47:14;;;;;;;4.20;1.83;;;29.20;56.70;;;;;;5036152;28;20260;-72
2022/07/08 12:49:47;;;;;;;2.60;1.80;;;29.30;55.90;;;;;;5044236;28;20413;-71
2022/07/08 12:52:14;;;;;;;2.83;1.90;;;29.40;55.20;;;;;;5028447;28;20186;-71